createdAt,value
2017-08-27T00:00:23.749Z,22.20
2017-08-27T00:02:51.215Z,22.20
2017-08-27T00:05:18.842Z,22.10
2017-08-27T00:07:46.292Z,22.10
2017-08-27T00:10:14.071Z,22.00
2017-08-27T00:12:41.633Z,22.00
2017-08-27T00:15:09.095Z,21.90
2017-08-27T00:17:36.559Z,21.90
2017-08-27T00:20:04.308Z,21.90
2017-08-27T00:22:31.745Z,21.90
2017-08-27T00:24:59.224Z,21.70
2017-08-27T00:27:26.868Z,21.80
2017-08-27T00:29:54.360Z,21.80
2017-08-27T00:32:21.908Z,21.70
2017-08-27T00:34:49.352Z,21.70
2017-08-27T00:37:16.812Z,21.80
2017-08-27T00:39:44.301Z,21.70
2017-08-27T00:42:12.036Z,21.60
2017-08-27T00:44:39.667Z,21.70
2017-08-27T00:47:07.113Z,21.70
2017-08-27T00:49:35.504Z,21.80
2017-08-27T00:52:03.021Z,21.80
2017-08-27T00:54:30.541Z,21.80
2017-08-27T00:56:57.974Z,21.80
2017-08-27T00:59:25.404Z,21.70
2017-08-27T01:01:52.908Z,21.70
2017-08-27T01:04:20.344Z,21.60
2017-08-27T01:06:47.780Z,21.60
2017-08-27T01:09:15.207Z,21.40
2017-08-27T01:11:42.736Z,21.40
2017-08-27T01:14:10.190Z,21.40
2017-08-27T01:16:37.653Z,21.30
2017-08-27T01:19:05.084Z,21.40
2017-08-27T01:21:32.563Z,21.50
2017-08-27T01:24:00.021Z,21.40
2017-08-27T01:26:27.783Z,21.50
2017-08-27T01:28:55.430Z,21.40
2017-08-27T01:31:22.941Z,21.40
2017-08-27T01:33:50.456Z,21.40
2017-08-27T01:36:17.912Z,21.40
2017-08-27T01:38:45.363Z,21.40
2017-08-27T01:41:12.798Z,21.40
2017-08-27T01:43:40.228Z,21.30
2017-08-27T01:46:07.738Z,21.20
2017-08-27T01:48:35.188Z,21.20
2017-08-27T01:51:02.655Z,21.10
2017-08-27T01:53:30.108Z,21.00
2017-08-27T01:55:57.536Z,21.00
2017-08-27T01:58:24.967Z,20.90
2017-08-27T02:00:52.486Z,20.80
2017-08-27T02:03:19.937Z,20.80
2017-08-27T02:05:47.366Z,20.80
2017-08-27T02:08:14.945Z,20.70
2017-08-27T02:10:42.508Z,20.70
2017-08-27T02:13:09.985Z,20.70
2017-08-27T02:15:37.424Z,20.60
2017-08-27T02:18:04.985Z,20.60
2017-08-27T02:20:32.418Z,20.60
2017-08-27T02:22:59.852Z,20.60
2017-08-27T02:25:27.348Z,20.60
2017-08-27T02:27:55.101Z,20.50
2017-08-27T02:30:22.561Z,20.60
2017-08-27T02:32:50.005Z,20.50
2017-08-27T02:35:17.431Z,20.50
2017-08-27T02:37:44.882Z,20.50
2017-08-27T02:40:12.310Z,20.50
2017-08-27T02:42:39.731Z,20.40
2017-08-27T02:45:07.276Z,20.40
2017-08-27T02:47:34.756Z,20.40
2017-08-27T02:50:02.414Z,20.40
2017-08-27T02:52:29.976Z,20.40
2017-08-27T02:54:57.745Z,20.40
2017-08-27T02:57:25.375Z,20.30
2017-08-27T02:59:52.945Z,20.30
2017-08-27T03:02:20.368Z,20.30
2017-08-27T03:04:47.877Z,20.30
2017-08-27T03:07:15.300Z,20.20
2017-08-27T03:09:42.740Z,20.20
2017-08-27T03:12:10.181Z,20.20
2017-08-27T03:14:37.695Z,20.10
2017-08-27T03:17:05.124Z,20.10
2017-08-27T03:19:32.566Z,20.10
2017-08-27T03:21:59.993Z,20.10
2017-08-27T03:24:27.431Z,20.10
2017-08-27T03:26:54.856Z,20.00
2017-08-27T03:29:22.436Z,20.00
2017-08-27T03:31:50.073Z,20.00
2017-08-27T03:34:17.572Z,20.00
2017-08-27T03:36:45.013Z,19.90
2017-08-27T03:39:12.568Z,19.90
2017-08-27T03:41:40.028Z,19.90
2017-08-27T03:44:07.789Z,19.90
2017-08-27T03:46:35.556Z,19.90
2017-08-27T03:49:03.314Z,19.90
2017-08-27T03:51:30.740Z,19.80
2017-08-27T03:53:58.176Z,19.80
2017-08-27T03:56:25.679Z,19.80
2017-08-27T03:58:53.104Z,19.80
2017-08-27T04:01:20.597Z,19.80
2017-08-27T04:03:48.229Z,19.80
2017-08-27T04:06:15.738Z,19.90
2017-08-27T04:08:43.179Z,19.90
2017-08-27T04:11:10.639Z,19.90
2017-08-27T04:13:38.162Z,19.90
2017-08-27T04:16:05.604Z,19.90
2017-08-27T04:18:33.032Z,19.90
2017-08-27T04:21:00.552Z,19.90
2017-08-27T04:23:27.989Z,19.90
2017-08-27T04:25:55.424Z,19.90
2017-08-27T04:28:22.921Z,19.90
2017-08-27T04:30:50.359Z,19.90
2017-08-27T04:33:17.792Z,19.90
2017-08-27T04:35:45.232Z,19.90
2017-08-27T04:38:12.757Z,19.80
2017-08-27T04:40:40.398Z,19.90
2017-08-27T04:43:07.969Z,19.80
2017-08-27T04:45:35.622Z,19.80
2017-08-27T04:48:03.187Z,19.90
2017-08-27T04:50:30.624Z,19.80
2017-08-27T04:52:58.052Z,19.80
2017-08-27T04:55:25.559Z,19.80
2017-08-27T04:57:53.324Z,19.80
2017-08-27T05:00:20.772Z,19.80
2017-08-27T05:02:48.206Z,19.70
2017-08-27T05:05:15.652Z,19.70
2017-08-27T05:07:43.152Z,19.70
2017-08-27T05:10:10.612Z,19.70
2017-08-27T05:12:38.280Z,19.80
2017-08-27T05:15:05.711Z,19.80
2017-08-27T05:17:33.268Z,19.80
2017-08-27T05:20:00.700Z,19.90
2017-08-27T05:22:28.188Z,19.90
2017-08-27T05:24:55.659Z,19.90
2017-08-27T05:27:23.298Z,19.90
2017-08-27T05:29:50.735Z,19.90
2017-08-27T05:32:18.321Z,20.00
2017-08-27T05:34:45.964Z,20.00
2017-08-27T05:37:13.535Z,20.00
2017-08-27T05:39:40.996Z,20.00
2017-08-27T05:42:08.464Z,20.00
2017-08-27T05:44:35.901Z,20.10
2017-08-27T05:47:03.364Z,20.10
2017-08-27T05:49:30.823Z,20.10
2017-08-27T05:51:58.276Z,20.10
2017-08-27T05:54:25.737Z,20.20
2017-08-27T05:56:53.178Z,20.20
2017-08-27T05:59:20.644Z,20.20
2017-08-27T06:01:48.078Z,20.20
2017-08-27T06:04:15.495Z,20.20
2017-08-27T06:06:43.012Z,20.20
2017-08-27T06:09:10.468Z,20.20
2017-08-27T06:11:37.892Z,20.30
2017-08-27T06:14:05.376Z,20.30
2017-08-27T06:16:32.842Z,20.30
2017-08-27T06:19:00.303Z,20.40
2017-08-27T06:21:27.949Z,20.40
2017-08-27T06:23:55.391Z,20.40
2017-08-27T06:26:22.973Z,20.50
2017-08-27T06:28:50.737Z,20.50
2017-08-27T06:31:18.164Z,20.60
2017-08-27T06:33:45.608Z,20.60
2017-08-27T06:36:13.108Z,20.60
2017-08-27T06:38:40.761Z,20.70
2017-08-27T06:41:08.328Z,20.80
2017-08-27T06:43:36.093Z,20.80
2017-08-27T06:46:03.540Z,20.80
2017-08-27T06:48:30.979Z,20.90
2017-08-27T06:50:58.476Z,20.90
2017-08-27T06:53:25.936Z,20.90
2017-08-27T06:55:53.551Z,21.00
2017-08-27T06:58:21.129Z,21.00
2017-08-27T07:00:51.447Z,21.00
2017-08-27T07:03:18.993Z,21.00
2017-08-27T07:05:46.477Z,21.00
2017-08-27T07:08:14.024Z,21.10
2017-08-27T07:10:41.488Z,21.10
2017-08-27T07:13:08.941Z,21.20
2017-08-27T07:15:36.391Z,21.30
2017-08-27T07:18:03.829Z,21.30
2017-08-27T07:20:31.252Z,21.40
2017-08-27T07:22:58.714Z,21.40
2017-08-27T07:25:26.221Z,21.50
2017-08-27T07:27:53.660Z,21.60
2017-08-27T07:30:21.084Z,21.60
2017-08-27T07:32:48.588Z,21.60
2017-08-27T07:35:16.018Z,21.60
2017-08-27T07:37:43.499Z,21.70
2017-08-27T07:40:10.926Z,21.80
2017-08-27T07:42:38.367Z,21.80
2017-08-27T07:45:05.882Z,21.90
2017-08-27T07:47:33.324Z,21.90
2017-08-27T07:50:00.764Z,22.00
2017-08-27T07:52:28.189Z,22.00
2017-08-27T07:54:55.636Z,22.10
2017-08-27T07:57:23.064Z,22.10
2017-08-27T07:59:50.608Z,22.20
2017-08-27T08:02:18.244Z,22.20
2017-08-27T08:04:45.708Z,22.30
2017-08-27T08:07:13.160Z,22.30
2017-08-27T08:09:40.616Z,22.30
2017-08-27T08:12:08.064Z,22.40
2017-08-27T08:14:35.537Z,22.40
2017-08-27T08:17:02.959Z,22.50
2017-08-27T08:19:30.577Z,22.50
2017-08-27T08:21:58.192Z,22.60
2017-08-27T08:24:25.646Z,22.60
2017-08-27T08:26:53.852Z,22.60
2017-08-27T08:29:21.289Z,22.60
2017-08-27T08:31:48.718Z,22.70
2017-08-27T08:34:16.228Z,22.70
2017-08-27T08:36:43.660Z,22.80
2017-08-27T08:39:11.160Z,22.90
2017-08-27T08:41:38.609Z,22.90
2017-08-27T08:44:06.237Z,23.00
2017-08-27T08:46:33.812Z,23.10
2017-08-27T08:49:01.248Z,23.10
2017-08-27T08:51:28.728Z,23.20
2017-08-27T08:53:56.180Z,23.20
2017-08-27T08:56:23.884Z,23.30
2017-08-27T08:58:51.424Z,23.40
2017-08-27T09:01:19.031Z,23.40
2017-08-27T09:03:46.624Z,23.50
2017-08-27T09:06:14.256Z,23.60
2017-08-27T09:08:41.849Z,23.70
2017-08-27T09:11:09.299Z,23.70
2017-08-27T09:13:37.677Z,23.80
2017-08-27T09:16:05.320Z,23.70
2017-08-27T09:18:32.753Z,23.90
2017-08-27T09:21:00.965Z,24.10
2017-08-27T09:23:28.497Z,24.00
2017-08-27T09:25:56.101Z,24.20
2017-08-27T09:28:23.529Z,24.30
2017-08-27T09:30:51.101Z,24.20
2017-08-27T09:33:18.557Z,24.20
2017-08-27T09:35:46.003Z,24.30
2017-08-27T09:38:13.476Z,24.30
2017-08-27T09:40:41.117Z,24.30
2017-08-27T09:43:08.687Z,24.40
2017-08-27T09:45:36.146Z,24.50
2017-08-27T09:48:04.480Z,24.50
2017-08-27T09:50:31.908Z,24.60
2017-08-27T09:52:59.440Z,24.60
2017-08-27T09:55:27.088Z,24.60
2017-08-27T09:57:54.529Z,24.60
2017-08-27T10:00:22.119Z,24.70
2017-08-27T10:02:49.744Z,24.80
2017-08-27T10:05:17.249Z,24.80
2017-08-27T10:07:44.777Z,24.80
2017-08-27T10:10:12.200Z,24.90
2017-08-27T10:12:39.637Z,24.90
2017-08-27T10:15:07.059Z,25.10
2017-08-27T10:17:34.516Z,25.10
2017-08-27T10:20:02.073Z,25.10
2017-08-27T10:22:29.724Z,25.30
2017-08-27T10:24:57.198Z,25.20
2017-08-27T10:27:24.737Z,25.20
2017-08-27T10:29:52.209Z,25.20
2017-08-27T10:32:19.960Z,25.40
2017-08-27T10:34:47.417Z,25.60
2017-08-27T10:37:15.172Z,25.60
2017-08-27T10:39:42.636Z,25.80
2017-08-27T10:42:10.103Z,25.90
2017-08-27T10:44:37.854Z,26.00
2017-08-27T10:47:05.297Z,26.10
2017-08-27T10:49:32.773Z,26.20
2017-08-27T10:52:00.407Z,26.20
2017-08-27T10:54:27.988Z,26.40
2017-08-27T10:56:55.448Z,26.50
2017-08-27T10:59:22.876Z,26.70
2017-08-27T11:01:50.302Z,27.00
2017-08-27T11:04:17.725Z,27.10
2017-08-27T11:06:45.192Z,27.20
2017-08-27T11:09:12.723Z,27.20
2017-08-27T11:11:40.140Z,27.30
2017-08-27T11:14:07.585Z,27.30
2017-08-27T11:16:35.000Z,27.40
2017-08-27T11:19:02.550Z,27.60
2017-08-27T11:21:29.976Z,27.70
2017-08-27T11:23:57.461Z,27.80
2017-08-27T11:26:24.920Z,27.90
2017-08-27T11:28:52.352Z,28.00
2017-08-27T11:31:19.842Z,28.20
2017-08-27T11:33:47.277Z,28.10
2017-08-27T11:36:14.701Z,28.10
2017-08-27T11:38:42.144Z,28.20
2017-08-27T11:41:09.592Z,28.30
2017-08-27T11:43:37.059Z,28.30
2017-08-27T11:46:04.577Z,28.50
2017-08-27T11:48:32.208Z,28.60
2017-08-27T11:50:59.788Z,28.70
2017-08-27T11:53:27.264Z,28.70
2017-08-27T11:55:54.675Z,28.70
2017-08-27T11:58:22.114Z,28.80
2017-08-27T12:00:49.618Z,28.90
2017-08-27T12:03:17.080Z,28.90
2017-08-27T12:08:40.065Z,29.00
2017-08-27T12:11:07.495Z,29.10
2017-08-27T12:13:34.962Z,29.30
2017-08-27T12:16:02.500Z,29.30
2017-08-27T12:18:30.264Z,29.50
2017-08-27T12:20:57.903Z,29.60
2017-08-27T12:23:28.266Z,29.70
2017-08-27T12:25:55.744Z,29.70
2017-08-27T12:28:23.382Z,29.80
2017-08-27T12:30:50.928Z,29.80
2017-08-27T12:33:18.394Z,29.70
2017-08-27T12:35:45.845Z,29.70
2017-08-27T12:38:13.368Z,29.80
2017-08-27T12:40:40.990Z,30.00
2017-08-27T12:43:08.433Z,30.20
2017-08-27T12:45:36.699Z,30.40
2017-08-27T12:48:04.233Z,30.60
2017-08-27T12:50:31.799Z,30.70
2017-08-27T12:52:59.280Z,30.80
2017-08-27T12:55:26.749Z,30.80
2017-08-27T12:57:54.196Z,30.90
2017-08-27T13:00:21.829Z,31.10
2017-08-27T13:02:49.385Z,31.10
2017-08-27T13:05:16.834Z,31.10
2017-08-27T13:07:44.305Z,31.00
2017-08-27T13:10:11.948Z,30.90
2017-08-27T13:12:39.528Z,30.90
2017-08-27T13:15:06.963Z,30.80
2017-08-27T13:17:34.380Z,30.70
2017-08-27T13:20:01.892Z,30.60
2017-08-27T13:22:29.303Z,30.50
2017-08-27T13:24:56.744Z,30.50
2017-08-27T13:27:24.264Z,30.40
2017-08-27T13:29:51.900Z,30.50
2017-08-27T13:32:19.461Z,31.00
2017-08-27T13:34:46.943Z,31.30
2017-08-27T13:37:14.387Z,31.30
2017-08-27T13:39:42.552Z,31.60
2017-08-27T13:42:10.135Z,32.00
2017-08-27T13:44:37.679Z,32.30
2017-08-27T13:47:05.449Z,32.60
2017-08-27T13:49:33.208Z,32.80
2017-08-27T13:52:00.840Z,33.00
2017-08-27T13:54:28.424Z,33.10
2017-08-27T13:56:55.860Z,33.30
2017-08-27T13:59:23.336Z,33.40
2017-08-27T14:01:50.771Z,33.40
2017-08-27T14:04:18.202Z,33.30
2017-08-27T14:06:45.707Z,33.00
2017-08-27T14:09:14.088Z,32.60
2017-08-27T14:11:41.522Z,32.60
2017-08-27T14:14:08.954Z,32.30
2017-08-27T14:16:36.387Z,32.40
2017-08-27T14:19:03.923Z,32.40
2017-08-27T14:21:31.339Z,32.40
2017-08-27T14:23:58.761Z,32.40
2017-08-27T14:26:26.189Z,32.50
2017-08-27T14:28:53.604Z,32.50
2017-08-27T14:31:21.088Z,32.60
2017-08-27T14:33:48.573Z,32.60
2017-08-27T14:36:15.984Z,32.70
2017-08-27T14:38:43.481Z,32.60
2017-08-27T14:41:11.016Z,32.50
2017-08-27T14:43:39.315Z,32.50
2017-08-27T14:46:06.811Z,32.40
2017-08-27T14:48:34.232Z,32.30
2017-08-27T14:51:01.665Z,32.30
2017-08-27T14:53:29.176Z,32.40
2017-08-27T14:55:56.683Z,32.30
2017-08-27T14:58:24.344Z,32.30
2017-08-27T15:00:51.829Z,32.20
2017-08-27T15:03:19.372Z,32.00
2017-08-27T15:05:46.923Z,31.90
2017-08-27T15:08:14.365Z,31.80
2017-08-27T15:10:42.040Z,31.70
2017-08-27T15:13:09.682Z,31.60
2017-08-27T15:15:37.104Z,31.50
2017-08-27T15:18:04.596Z,31.40
2017-08-27T15:20:32.065Z,31.30
2017-08-27T15:22:59.652Z,31.20
2017-08-27T15:25:27.089Z,31.10
2017-08-27T15:27:54.733Z,31.10
2017-08-27T15:30:22.291Z,31.00
2017-08-27T15:32:49.718Z,31.00
2017-08-27T15:35:17.136Z,30.90
2017-08-27T15:37:44.660Z,31.00
2017-08-27T15:40:12.085Z,30.90
2017-08-27T15:42:39.503Z,30.90
2017-08-27T15:45:06.941Z,30.80
2017-08-27T15:47:34.395Z,30.80
2017-08-27T15:50:01.876Z,30.70
2017-08-27T15:52:29.319Z,30.70
2017-08-27T15:54:56.768Z,30.60
2017-08-27T15:57:24.235Z,30.50
2017-08-27T15:59:51.708Z,30.50
2017-08-27T16:02:19.151Z,30.40
2017-08-27T16:04:46.601Z,30.40
2017-08-27T16:07:14.056Z,30.30
2017-08-27T16:09:41.614Z,30.40
2017-08-27T16:12:09.337Z,30.40
2017-08-27T16:14:36.813Z,30.50
2017-08-27T16:17:04.228Z,30.60
2017-08-27T16:19:31.681Z,30.70
2017-08-27T16:21:59.128Z,30.80
2017-08-27T16:24:28.744Z,30.80
2017-08-27T16:26:56.221Z,30.80
2017-08-27T16:29:23.644Z,30.80
2017-08-27T16:31:51.063Z,30.80
2017-08-27T16:34:18.515Z,30.80
2017-08-27T16:36:45.972Z,30.80
2017-08-27T16:39:13.432Z,30.90
2017-08-27T16:41:40.865Z,30.90
2017-08-27T16:44:08.375Z,30.90
2017-08-27T16:46:35.811Z,30.80
2017-08-27T16:49:03.226Z,30.70
2017-08-27T16:51:30.662Z,30.60
2017-08-27T16:53:58.084Z,30.60
2017-08-27T16:56:25.631Z,30.60
2017-08-27T16:58:53.076Z,30.60
2017-08-27T17:01:20.624Z,30.50
2017-08-27T17:03:48.083Z,30.40
2017-08-27T17:06:15.520Z,30.30
2017-08-27T17:08:42.950Z,30.20
2017-08-27T17:11:10.378Z,30.20
2017-08-27T17:13:37.814Z,30.10
2017-08-27T17:16:05.238Z,29.90
2017-08-27T17:18:32.909Z,29.70
2017-08-27T17:21:00.499Z,29.70
2017-08-27T17:23:27.956Z,29.70
2017-08-27T17:25:55.396Z,29.70
2017-08-27T17:28:23.584Z,29.60
2017-08-27T17:30:51.018Z,29.50
2017-08-27T17:33:18.446Z,29.40
2017-08-27T17:35:45.872Z,29.30
2017-08-27T17:38:13.308Z,29.30
2017-08-27T17:40:40.745Z,29.10
2017-08-27T17:43:08.188Z,29.00
2017-08-27T17:45:35.612Z,28.90
2017-08-27T17:48:03.815Z,28.70
2017-08-27T17:50:31.247Z,28.60
2017-08-27T17:52:58.699Z,28.60
2017-08-27T17:55:26.125Z,28.50
2017-08-27T17:57:53.565Z,28.40
2017-08-27T18:00:21.005Z,28.20
2017-08-27T18:02:48.451Z,28.10
2017-08-27T18:05:15.917Z,28.00
2017-08-27T18:07:43.362Z,27.90
2017-08-27T18:10:10.825Z,27.80
2017-08-27T18:12:38.307Z,27.70
2017-08-27T18:15:05.755Z,27.60
2017-08-27T18:17:33.198Z,27.50
2017-08-27T18:20:00.764Z,27.40
2017-08-27T18:22:28.217Z,27.30
2017-08-27T18:24:55.694Z,27.20
2017-08-27T18:27:23.334Z,27.00
2017-08-27T18:29:50.804Z,26.90
2017-08-27T18:32:18.284Z,26.80
2017-08-27T18:34:45.732Z,26.70
2017-08-27T18:37:13.205Z,26.60
2017-08-27T18:39:40.618Z,26.50
2017-08-27T18:42:08.112Z,26.50
2017-08-27T18:44:35.644Z,26.40
2017-08-27T18:47:03.064Z,26.30
2017-08-27T18:49:30.861Z,26.30
2017-08-27T18:51:58.307Z,26.20
2017-08-27T18:54:25.776Z,26.10
2017-08-27T18:56:53.417Z,26.00
2017-08-27T18:59:20.967Z,25.90
2017-08-27T19:01:48.401Z,25.90
2017-08-27T19:04:15.828Z,25.80
2017-08-27T19:06:43.372Z,25.70
2017-08-27T19:09:11.116Z,25.70
2017-08-27T19:11:38.745Z,25.60
2017-08-27T19:14:06.212Z,25.60
2017-08-27T19:16:33.791Z,25.50
2017-08-27T19:19:01.224Z,25.50
2017-08-27T19:21:28.656Z,25.40
2017-08-27T19:23:56.092Z,25.40
2017-08-27T19:26:23.525Z,25.40
2017-08-27T19:28:50.962Z,25.30
2017-08-27T19:31:18.464Z,25.30
2017-08-27T19:33:45.901Z,25.30
2017-08-27T19:36:13.441Z,25.20
2017-08-27T19:38:40.901Z,25.10
2017-08-27T19:41:08.323Z,25.10
2017-08-27T19:43:35.764Z,25.00
2017-08-27T19:46:03.194Z,25.00
2017-08-27T19:48:30.720Z,25.00
2017-08-27T19:50:58.181Z,24.90
2017-08-27T19:53:25.823Z,24.90
2017-08-27T19:55:53.780Z,24.90
2017-08-27T19:58:21.468Z,24.90
2017-08-27T20:00:48.924Z,24.90
2017-08-27T20:03:16.356Z,24.80
2017-08-27T20:05:43.842Z,24.80
2017-08-27T20:08:11.295Z,24.80
2017-08-27T20:10:39.057Z,24.80
2017-08-27T20:13:06.483Z,24.80
2017-08-27T20:15:33.929Z,24.80
2017-08-27T20:18:01.433Z,24.70
2017-08-27T20:20:28.872Z,24.70
2017-08-27T20:22:56.314Z,24.70
2017-08-27T20:25:23.977Z,24.60
2017-08-27T20:27:51.568Z,24.60
2017-08-27T20:30:19.328Z,24.60
2017-08-27T20:32:46.752Z,24.60
2017-08-27T20:35:14.232Z,24.50
2017-08-27T20:37:41.685Z,24.50
2017-08-27T20:40:09.140Z,24.50
2017-08-27T20:42:36.578Z,24.50
2017-08-27T20:45:04.059Z,24.40
2017-08-27T20:47:31.495Z,24.40
2017-08-27T20:49:58.932Z,24.30
2017-08-27T20:52:26.428Z,24.30
2017-08-27T20:54:53.900Z,24.20
2017-08-27T20:57:21.529Z,24.20
2017-08-27T20:59:49.011Z,24.20
2017-08-27T21:02:16.464Z,24.10
2017-08-27T21:04:44.025Z,24.10
2017-08-27T21:07:11.671Z,24.10
2017-08-27T21:09:39.246Z,24.10
2017-08-27T21:12:06.681Z,24.10
2017-08-27T21:14:34.144Z,24.00
2017-08-27T21:17:01.564Z,24.00
2017-08-27T21:19:29.073Z,23.90
2017-08-27T21:21:56.518Z,23.90
2017-08-27T21:24:24.159Z,23.80
2017-08-27T21:26:51.660Z,23.90
2017-08-27T21:29:19.092Z,23.80
2017-08-27T21:31:46.651Z,23.80
2017-08-27T21:34:14.413Z,23.70
2017-08-27T21:36:41.853Z,23.70
2017-08-27T21:39:09.272Z,23.70
2017-08-27T21:41:36.787Z,23.70
2017-08-27T21:44:04.243Z,23.70
2017-08-27T21:46:32.007Z,23.60
2017-08-27T21:48:59.430Z,23.60
2017-08-27T21:51:26.922Z,23.60
2017-08-27T21:53:54.368Z,23.60
2017-08-27T21:56:22.121Z,23.60
2017-08-27T21:58:49.588Z,23.50
2017-08-27T22:01:17.242Z,23.50
2017-08-27T22:03:44.825Z,23.40
2017-08-27T22:06:12.257Z,23.40
2017-08-27T22:08:39.694Z,23.40
2017-08-27T22:11:07.201Z,23.30
2017-08-27T22:13:34.643Z,23.30
2017-08-27T22:16:02.063Z,23.30
2017-08-27T22:18:29.501Z,23.30
2017-08-27T22:20:57.012Z,23.30
2017-08-27T22:23:24.469Z,23.20
2017-08-27T22:25:51.929Z,23.20
2017-08-27T22:28:19.552Z,23.20
2017-08-27T22:30:47.136Z,23.10
2017-08-27T22:33:14.786Z,23.00
2017-08-27T22:35:42.351Z,23.00
2017-08-27T22:38:09.829Z,22.90
2017-08-27T22:40:37.445Z,22.90
2017-08-27T22:43:04.915Z,22.90
2017-08-27T22:45:32.384Z,22.90
2017-08-27T22:47:59.852Z,22.90
2017-08-27T22:50:27.395Z,22.90
2017-08-27T22:52:54.834Z,22.80
2017-08-27T22:55:22.276Z,22.80
2017-08-27T22:57:49.712Z,22.80
2017-08-27T23:00:17.156Z,22.80
2017-08-27T23:02:44.576Z,22.80
2017-08-27T23:05:12.140Z,22.80
2017-08-27T23:07:39.773Z,22.80
2017-08-27T23:10:07.272Z,22.70
2017-08-27T23:12:34.713Z,22.70
2017-08-27T23:15:02.272Z,22.70
2017-08-27T23:17:29.696Z,22.70
2017-08-27T23:19:57.185Z,22.70
2017-08-27T23:22:24.617Z,22.60
2017-08-27T23:24:52.053Z,22.60
2017-08-27T23:27:19.510Z,22.60
2017-08-27T23:29:46.944Z,22.60
2017-08-27T23:32:14.480Z,22.50
2017-08-27T23:34:41.917Z,22.50
2017-08-27T23:37:09.349Z,22.50
2017-08-27T23:39:36.798Z,22.50
2017-08-27T23:42:04.229Z,22.50
2017-08-27T23:44:31.664Z,22.40
2017-08-27T23:46:59.208Z,22.40
2017-08-27T23:49:26.661Z,22.30
2017-08-27T23:51:54.309Z,22.30
2017-08-27T23:54:21.753Z,22.20
2017-08-27T23:56:49.284Z,22.20
2017-08-27T23:59:16.715Z,22.10
